createdAt,value
2019-03-29T00:01:51.396Z,64.46
2019-03-29T00:04:17.588Z,64.46
2019-03-29T00:06:43.686Z,64.79
2019-03-29T00:09:09.797Z,66.23
2019-03-29T00:11:36.029Z,65.81
2019-03-29T00:14:02.300Z,67.27
2019-03-29T00:16:28.399Z,65.25
2019-03-29T00:18:54.504Z,64.28
2019-03-29T00:21:20.721Z,65.21
2019-03-29T00:23:48.982Z,66.13
2019-03-29T00:26:15.215Z,65.76
2019-03-29T00:28:41.340Z,64.97
2019-03-29T00:31:07.535Z,66.46
2019-03-29T00:33:33.627Z,64.83
2019-03-29T00:35:59.947Z,64.80
2019-03-29T00:38:26.223Z,65.15
2019-03-29T00:40:52.597Z,65.62
2019-03-29T00:43:18.681Z,65.42
2019-03-29T00:45:45.178Z,65.16
2019-03-29T00:48:12.005Z,64.53
2019-03-29T00:50:38.209Z,63.50
2019-03-29T00:53:04.506Z,63.96
2019-03-29T00:55:30.586Z,63.80
2019-03-29T00:57:56.937Z,63.41
2019-03-29T01:00:24.511Z,64.09
2019-03-29T01:02:50.699Z,64.44
2019-03-29T01:05:17.000Z,64.71
2019-03-29T01:07:43.384Z,64.74
2019-03-29T01:10:09.895Z,65.11
2019-03-29T01:12:35.993Z,64.99
2019-03-29T01:15:05.196Z,65.66
2019-03-29T01:17:31.404Z,66.25
2019-03-29T01:19:57.474Z,65.34
2019-03-29T01:22:23.663Z,66.27
2019-03-29T01:24:49.845Z,66.11
2019-03-29T01:27:16.049Z,66.37
2019-03-29T01:29:42.275Z,66.61
2019-03-29T01:32:08.344Z,66.67
2019-03-29T01:34:34.554Z,66.98
2019-03-29T01:37:00.660Z,67.26
2019-03-29T01:39:26.863Z,67.38
2019-03-29T01:41:53.338Z,67.49
2019-03-29T01:44:19.563Z,68.78
2019-03-29T01:46:45.772Z,69.47
2019-03-29T01:49:11.961Z,69.19
2019-03-29T01:51:38.287Z,69.69
2019-03-29T01:54:04.542Z,69.49
2019-03-29T01:56:30.651Z,69.30
2019-03-29T01:58:56.742Z,69.04
2019-03-29T02:01:22.952Z,69.16
2019-03-29T02:03:49.184Z,69.06
2019-03-29T02:06:15.429Z,69.04
2019-03-29T02:08:41.546Z,69.12
2019-03-29T02:11:07.629Z,69.08
2019-03-29T02:13:33.745Z,69.51
2019-03-29T02:15:59.966Z,69.76
2019-03-29T02:18:26.263Z,70.02
2019-03-29T02:20:52.388Z,70.08
2019-03-29T02:23:18.499Z,69.85
2019-03-29T02:25:44.701Z,70.00
2019-03-29T02:28:11.020Z,69.80
2019-03-29T02:30:37.357Z,69.85
2019-03-29T02:33:03.665Z,70.10
2019-03-29T02:35:29.960Z,70.09
2019-03-29T02:37:56.566Z,70.75
2019-03-29T02:40:23.214Z,71.01
2019-03-29T02:42:49.463Z,70.31
2019-03-29T02:45:15.681Z,70.45
2019-03-29T02:47:42.955Z,70.75
2019-03-29T02:50:09.574Z,70.16
2019-03-29T02:52:35.819Z,70.77
2019-03-29T02:55:05.768Z,70.75
2019-03-29T02:57:31.962Z,70.82
2019-03-29T02:59:58.165Z,71.19
2019-03-29T03:02:26.559Z,71.69
2019-03-29T03:04:52.299Z,72.13
2019-03-29T03:07:18.454Z,72.85
2019-03-29T03:09:44.713Z,72.10
2019-03-29T03:12:10.819Z,71.78
2019-03-29T03:14:37.116Z,71.50
2019-03-29T03:17:03.415Z,71.41
2019-03-29T03:19:29.621Z,71.07
2019-03-29T03:21:55.744Z,70.93
2019-03-29T03:24:22.028Z,71.53
2019-03-29T03:26:48.238Z,71.47
2019-03-29T03:29:14.418Z,72.30
2019-03-29T03:31:40.627Z,73.20
2019-03-29T03:34:06.957Z,73.32
2019-03-29T03:36:33.244Z,73.20
2019-03-29T03:38:59.344Z,73.79
2019-03-29T03:41:25.651Z,73.58
2019-03-29T03:43:51.817Z,73.57
2019-03-29T03:46:18.043Z,73.62
2019-03-29T03:48:44.174Z,73.14
2019-03-29T03:51:10.458Z,73.40
2019-03-29T03:53:36.845Z,73.61
2019-03-29T03:56:03.466Z,73.53
2019-03-29T03:58:30.589Z,73.77
2019-03-29T04:00:57.216Z,74.60
2019-03-29T04:03:24.295Z,74.51
2019-03-29T04:05:50.689Z,74.26
2019-03-29T04:08:18.113Z,74.45
2019-03-29T04:10:44.371Z,74.32
2019-03-29T04:13:10.524Z,74.31
2019-03-29T04:15:36.750Z,74.51
2019-03-29T04:18:03.086Z,74.45
2019-03-29T04:20:29.621Z,74.49
2019-03-29T04:22:55.818Z,74.68
2019-03-29T04:25:22.009Z,75.08
2019-03-29T04:27:48.202Z,74.83
2019-03-29T04:30:14.495Z,74.33
2019-03-29T04:32:40.571Z,74.50
2019-03-29T04:35:07.056Z,73.88
2019-03-29T04:37:33.159Z,74.40
2019-03-29T04:40:07.561Z,74.24
2019-03-29T04:42:27.411Z,74.19
2019-03-29T04:44:53.487Z,73.76
2019-03-29T04:47:19.743Z,73.68
2019-03-29T04:49:45.861Z,74.09
2019-03-29T04:52:12.061Z,74.44
2019-03-29T04:54:38.157Z,75.33
2019-03-29T04:57:04.260Z,75.13
2019-03-29T04:59:30.360Z,74.85
2019-03-29T05:01:56.451Z,74.92
2019-03-29T05:04:22.552Z,74.57
2019-03-29T05:06:48.757Z,74.24
2019-03-29T05:09:14.867Z,74.70
2019-03-29T05:11:41.083Z,74.27
2019-03-29T05:14:07.194Z,73.82
2019-03-29T05:16:33.316Z,74.59
2019-03-29T05:18:59.531Z,74.92
2019-03-29T05:21:25.616Z,74.71
2019-03-29T05:23:51.721Z,74.57
2019-03-29T05:26:17.933Z,74.26
2019-03-29T05:28:44.126Z,74.15
2019-03-29T05:31:10.339Z,73.96
2019-03-29T05:33:36.581Z,74.05
2019-03-29T05:36:02.864Z,74.23
2019-03-29T05:38:28.950Z,74.33
2019-03-29T05:40:55.278Z,74.34
2019-03-29T05:43:21.500Z,74.13
2019-03-29T05:45:47.817Z,75.13
2019-03-29T05:48:13.922Z,74.76
2019-03-29T05:50:40.211Z,74.94
2019-03-29T05:53:06.432Z,75.08
2019-03-29T05:55:33.133Z,74.98
2019-03-29T05:57:59.262Z,75.39
2019-03-29T06:00:25.524Z,75.67
2019-03-29T06:02:51.552Z,75.42
2019-03-29T06:05:18.860Z,74.98
2019-03-29T06:07:44.960Z,74.14
2019-03-29T06:10:11.250Z,74.05
2019-03-29T06:12:37.480Z,74.00
2019-03-29T06:15:04.453Z,74.04
2019-03-29T06:17:30.771Z,73.10
2019-03-29T06:19:56.989Z,72.33
2019-03-29T06:22:23.300Z,72.26
2019-03-29T06:24:49.483Z,71.53
2019-03-29T06:27:16.704Z,70.54
2019-03-29T06:29:42.778Z,70.01
2019-03-29T06:32:08.983Z,69.87
2019-03-29T06:34:35.292Z,70.05
2019-03-29T06:37:01.874Z,68.93
2019-03-29T06:39:28.201Z,69.19
2019-03-29T06:41:54.505Z,69.06
2019-03-29T06:44:20.730Z,68.77
2019-03-29T06:46:46.927Z,67.74
2019-03-29T06:49:13.038Z,67.59
2019-03-29T06:51:39.167Z,67.37
2019-03-29T06:54:05.498Z,67.05
2019-03-29T06:56:31.617Z,66.68
2019-03-29T06:58:57.745Z,65.10
2019-03-29T07:01:23.928Z,64.67
2019-03-29T07:03:51.107Z,64.61
2019-03-29T07:06:18.325Z,63.20
2019-03-29T07:08:44.445Z,64.87
2019-03-29T07:11:17.158Z,64.11
2019-03-29T07:13:38.865Z,62.88
2019-03-29T07:16:05.003Z,62.31
2019-03-29T07:18:31.126Z,61.63
2019-03-29T07:20:57.403Z,60.87
2019-03-29T07:23:23.644Z,63.10
2019-03-29T07:25:49.880Z,61.35
2019-03-29T07:28:16.495Z,60.76
2019-03-29T07:30:42.699Z,58.80
2019-03-29T07:33:09.018Z,58.76
2019-03-29T07:35:35.151Z,60.79
2019-03-29T07:38:01.207Z,60.77
2019-03-29T07:40:27.333Z,59.04
2019-03-29T07:42:53.422Z,60.72
2019-03-29T07:45:19.721Z,59.93
2019-03-29T07:47:45.988Z,59.12
2019-03-29T07:50:12.290Z,59.55
2019-03-29T07:52:38.721Z,61.02
2019-03-29T07:55:06.167Z,59.52
2019-03-29T07:57:32.466Z,58.09
2019-03-29T07:59:58.591Z,56.05
2019-03-29T08:02:24.930Z,56.78
2019-03-29T08:04:51.283Z,57.79
2019-03-29T08:07:27.319Z,57.79
2019-03-29T08:09:45.754Z,58.89
2019-03-29T08:12:12.180Z,55.63
2019-03-29T08:14:38.419Z,55.93
2019-03-29T08:17:04.647Z,55.93
2019-03-29T08:19:30.966Z,55.69
2019-03-29T08:21:57.917Z,58.18
2019-03-29T08:24:24.461Z,57.61
2019-03-29T08:26:50.920Z,57.41
2019-03-29T08:29:17.051Z,56.11
2019-03-29T08:31:43.336Z,53.26
2019-03-29T08:34:09.648Z,53.81
2019-03-29T08:36:35.948Z,54.38
2019-03-29T08:39:04.584Z,53.64
2019-03-29T08:41:30.989Z,54.05
2019-03-29T08:43:57.212Z,53.75
2019-03-29T08:46:23.459Z,54.94
2019-03-29T08:48:49.651Z,54.41
2019-03-29T08:51:15.785Z,53.86
2019-03-29T08:53:42.024Z,55.11
2019-03-29T08:56:08.326Z,54.78
2019-03-29T08:58:34.666Z,55.95
2019-03-29T09:01:01.003Z,54.53
2019-03-29T09:03:27.519Z,50.40
2019-03-29T09:05:53.841Z,52.63
2019-03-29T09:08:20.191Z,53.00
2019-03-29T09:10:46.406Z,50.69
2019-03-29T09:13:12.617Z,50.53
2019-03-29T09:15:38.741Z,50.98
2019-03-29T09:18:04.876Z,50.84
2019-03-29T09:20:34.255Z,48.92
2019-03-29T09:22:59.409Z,50.22
2019-03-29T09:25:25.618Z,50.39
2019-03-29T09:27:51.727Z,48.15
2019-03-29T09:30:18.575Z,46.63
2019-03-29T09:32:44.891Z,47.54
2019-03-29T09:35:11.376Z,48.46
2019-03-29T09:37:37.597Z,47.55
2019-03-29T09:40:05.101Z,47.55
2019-03-29T09:42:31.298Z,47.59
2019-03-29T09:44:57.653Z,46.94
2019-03-29T09:47:23.708Z,46.70
2019-03-29T09:49:49.811Z,46.53
2019-03-29T09:52:15.907Z,50.76
2019-03-29T09:54:42.088Z,50.15
2019-03-29T09:57:09.913Z,48.63
2019-03-29T09:59:36.419Z,47.75
2019-03-29T10:02:02.734Z,45.63
2019-03-29T10:04:28.947Z,47.81
2019-03-29T10:06:55.280Z,48.00
2019-03-29T10:09:21.393Z,45.90
2019-03-29T10:11:47.525Z,45.72
2019-03-29T10:14:13.767Z,46.41
2019-03-29T10:16:39.864Z,47.19
2019-03-29T10:19:05.969Z,48.98
2019-03-29T10:21:34.118Z,46.97
2019-03-29T10:24:00.315Z,47.04
2019-03-29T10:26:26.534Z,45.53
2019-03-29T10:28:52.673Z,46.47
2019-03-29T10:31:31.504Z,47.72
2019-03-29T10:33:49.029Z,47.62
2019-03-29T10:36:15.215Z,47.10
2019-03-29T10:38:41.534Z,48.12
2019-03-29T10:41:07.804Z,46.07
2019-03-29T10:43:33.902Z,46.59
2019-03-29T10:46:00.133Z,46.36
2019-03-29T10:48:26.531Z,44.46
2019-03-29T10:50:52.737Z,45.45
2019-03-29T10:53:18.986Z,44.68
2019-03-29T10:55:45.179Z,44.94
2019-03-29T10:58:11.518Z,44.69
2019-03-29T11:00:38.925Z,43.68
2019-03-29T11:03:05.417Z,43.98
2019-03-29T11:05:31.710Z,43.18
2019-03-29T11:07:58.022Z,45.02
2019-03-29T11:10:33.986Z,44.27
2019-03-29T11:13:11.869Z,44.96
2019-03-29T11:15:29.982Z,45.69
2019-03-29T11:17:56.390Z,44.37
2019-03-29T11:20:22.634Z,46.16
2019-03-29T11:22:48.735Z,46.15
2019-03-29T11:25:15.060Z,43.03
2019-03-29T11:27:41.276Z,44.49
2019-03-29T11:30:07.640Z,42.92
2019-03-29T11:32:33.877Z,42.26
2019-03-29T11:35:00.395Z,44.56
2019-03-29T11:37:26.639Z,43.50
2019-03-29T11:39:52.836Z,44.77
2019-03-29T11:42:18.919Z,41.98
2019-03-29T11:44:45.001Z,41.67
2019-03-29T11:47:11.232Z,44.44
2019-03-29T11:49:37.623Z,45.39
2019-03-29T11:52:04.041Z,45.31
2019-03-29T11:54:30.200Z,46.50
2019-03-29T11:56:56.452Z,46.32
2019-03-29T11:59:22.658Z,45.89
2019-03-29T12:01:48.843Z,45.93
2019-03-29T12:04:15.085Z,44.99
2019-03-29T12:06:41.242Z,44.01
2019-03-29T12:09:08.648Z,43.46
2019-03-29T12:11:34.985Z,44.07
2019-03-29T12:14:04.837Z,42.52
2019-03-29T12:16:30.052Z,41.06
2019-03-29T12:18:56.261Z,41.03
2019-03-29T12:21:22.545Z,41.60
2019-03-29T12:23:48.759Z,41.05
2019-03-29T12:26:14.888Z,41.39
2019-03-29T12:28:41.017Z,38.97
2019-03-29T12:31:07.443Z,39.62
2019-03-29T12:33:33.667Z,39.38
2019-03-29T12:35:59.762Z,39.81
2019-03-29T12:38:25.884Z,38.67
2019-03-29T12:40:52.262Z,39.53
2019-03-29T12:43:18.480Z,36.29
2019-03-29T12:45:44.589Z,38.00
2019-03-29T12:48:10.683Z,38.40
2019-03-29T12:50:36.910Z,38.97
2019-03-29T12:53:03.207Z,38.03
2019-03-29T12:55:29.424Z,39.27
2019-03-29T12:57:55.848Z,39.18
2019-03-29T13:00:22.295Z,39.97
2019-03-29T13:02:48.568Z,40.02
2019-03-29T13:05:14.884Z,41.32
2019-03-29T13:07:41.084Z,38.72
2019-03-29T13:10:07.994Z,39.02
2019-03-29T13:12:34.243Z,38.45
2019-03-29T13:15:00.466Z,38.40
2019-03-29T13:17:28.592Z,43.17
2019-03-29T13:19:54.674Z,41.58
2019-03-29T13:22:21.311Z,38.47
2019-03-29T13:24:49.587Z,39.01
2019-03-29T13:27:16.110Z,38.67
2019-03-29T13:29:42.352Z,37.67
2019-03-29T13:32:08.598Z,38.37
2019-03-29T13:34:34.826Z,42.61
2019-03-29T13:37:01.112Z,40.85
2019-03-29T13:39:27.210Z,38.53
2019-03-29T13:41:53.329Z,38.94
2019-03-29T13:44:24.042Z,38.51
2019-03-29T13:46:47.813Z,38.20
2019-03-29T13:49:14.006Z,39.88
2019-03-29T13:51:40.210Z,40.78
2019-03-29T13:54:06.545Z,42.97
2019-03-29T13:56:32.879Z,41.16
2019-03-29T13:58:59.018Z,42.17
2019-03-29T14:01:25.118Z,40.29
2019-03-29T14:03:51.208Z,38.94
2019-03-29T14:06:17.410Z,37.60
2019-03-29T14:08:43.581Z,39.04
2019-03-29T14:11:09.808Z,41.19
2019-03-29T14:13:35.911Z,39.90
2019-03-29T14:16:02.095Z,40.28
2019-03-29T14:18:28.418Z,40.99
2019-03-29T14:20:54.652Z,42.42
2019-03-29T14:23:20.875Z,42.64
2019-03-29T14:25:46.953Z,41.54
2019-03-29T14:28:13.257Z,42.05
2019-03-29T14:30:39.480Z,41.54
2019-03-29T14:33:05.611Z,42.16
2019-03-29T14:35:31.888Z,41.01
2019-03-29T14:37:58.125Z,40.56
2019-03-29T14:40:24.429Z,44.61
2019-03-29T14:42:50.635Z,41.31
2019-03-29T14:45:16.885Z,42.00
2019-03-29T14:47:43.961Z,42.29
2019-03-29T14:50:10.679Z,43.24
2019-03-29T14:52:37.589Z,43.34
2019-03-29T14:55:04.915Z,43.43
2019-03-29T14:57:31.162Z,42.87
2019-03-29T14:59:57.483Z,42.46
2019-03-29T15:02:23.632Z,42.30
2019-03-29T15:04:49.807Z,42.67
2019-03-29T15:07:16.027Z,42.69
2019-03-29T15:09:42.298Z,43.12
2019-03-29T15:12:08.539Z,41.35
2019-03-29T15:14:34.730Z,40.12
2019-03-29T15:17:01.040Z,39.92
2019-03-29T15:19:27.266Z,40.44
2019-03-29T15:21:53.485Z,40.23
2019-03-29T15:24:19.662Z,40.28
2019-03-29T15:26:45.893Z,39.73
2019-03-29T15:29:12.037Z,37.71
2019-03-29T15:31:38.243Z,38.77
2019-03-29T15:34:05.460Z,37.74
2019-03-29T15:36:31.655Z,40.80
2019-03-29T15:38:57.878Z,38.19
2019-03-29T15:41:24.181Z,39.56
2019-03-29T15:43:50.424Z,41.59
2019-03-29T15:46:16.524Z,40.35
2019-03-29T15:48:42.843Z,40.55
2019-03-29T15:51:10.279Z,39.82
2019-03-29T15:53:36.524Z,39.47
2019-03-29T15:56:02.875Z,38.88
2019-03-29T15:58:29.120Z,40.15
2019-03-29T16:00:55.309Z,39.16
2019-03-29T16:03:21.491Z,38.67
2019-03-29T16:05:48.553Z,39.89
2019-03-29T16:08:15.042Z,39.34
2019-03-29T16:10:41.625Z,39.78
2019-03-29T16:13:07.999Z,39.13
2019-03-29T16:15:38.234Z,39.67
2019-03-29T16:18:02.446Z,39.41
2019-03-29T16:20:28.705Z,38.33
2019-03-29T16:22:54.932Z,38.80
2019-03-29T16:25:21.067Z,37.45
2019-03-29T16:27:47.390Z,38.47
2019-03-29T16:30:13.930Z,39.17
2019-03-29T16:32:40.108Z,39.96
2019-03-29T16:35:06.715Z,39.93
2019-03-29T16:37:32.938Z,40.23
2019-03-29T16:39:59.033Z,39.63
2019-03-29T16:42:25.143Z,40.61
2019-03-29T16:44:51.504Z,39.10
2019-03-29T16:47:17.595Z,39.07
2019-03-29T16:49:44.875Z,38.94
2019-03-29T16:52:10.985Z,40.60
2019-03-29T16:54:37.191Z,40.46
2019-03-29T16:57:03.530Z,40.27
2019-03-29T16:59:29.758Z,41.66
2019-03-29T17:01:56.114Z,42.21
2019-03-29T17:04:22.319Z,41.86
2019-03-29T17:06:48.416Z,41.71
2019-03-29T17:09:14.648Z,41.58
2019-03-29T17:11:40.897Z,41.62
2019-03-29T17:14:07.261Z,42.16
2019-03-29T17:16:33.561Z,42.77
2019-03-29T17:18:59.781Z,41.84
2019-03-29T17:21:26.975Z,42.61
2019-03-29T17:23:53.176Z,41.98
2019-03-29T17:26:19.385Z,42.69
2019-03-29T17:28:45.681Z,44.44
2019-03-29T17:31:13.982Z,44.01
2019-03-29T17:33:40.196Z,44.37
2019-03-29T17:36:06.390Z,43.57
2019-03-29T17:38:32.645Z,44.76
2019-03-29T17:40:58.874Z,44.61
2019-03-29T17:43:25.006Z,45.59
2019-03-29T17:45:51.363Z,47.35
2019-03-29T17:48:17.497Z,46.33
2019-03-29T17:50:43.812Z,47.69
2019-03-29T17:53:12.071Z,48.81
2019-03-29T17:55:38.382Z,48.41
2019-03-29T17:58:04.613Z,50.21
2019-03-29T18:00:31.039Z,50.06
2019-03-29T18:02:57.130Z,49.18
2019-03-29T18:05:23.335Z,50.00
2019-03-29T18:07:49.557Z,50.96
2019-03-29T18:10:15.997Z,52.38
2019-03-29T18:12:42.345Z,52.96
2019-03-29T18:15:09.048Z,54.37
2019-03-29T18:17:35.753Z,54.61
2019-03-29T18:20:06.963Z,54.28
2019-03-29T18:22:33.273Z,54.36
2019-03-29T18:24:59.599Z,55.59
2019-03-29T18:27:26.086Z,54.55
2019-03-29T18:29:52.484Z,55.88
2019-03-29T18:32:18.734Z,56.46
2019-03-29T18:34:45.003Z,55.69
2019-03-29T18:37:12.034Z,54.83
2019-03-29T18:39:38.440Z,55.36
2019-03-29T18:42:04.602Z,54.41
2019-03-29T18:44:30.740Z,53.54
2019-03-29T18:46:56.960Z,54.55
2019-03-29T18:49:23.119Z,54.09
2019-03-29T18:51:49.468Z,53.39
2019-03-29T18:54:15.623Z,53.32
2019-03-29T18:56:42.947Z,53.24
2019-03-29T18:59:09.068Z,52.99
2019-03-29T19:01:35.356Z,54.45
2019-03-29T19:04:01.484Z,54.63
2019-03-29T19:06:27.828Z,53.85
2019-03-29T19:08:54.063Z,53.99
2019-03-29T19:11:20.285Z,54.40
2019-03-29T19:13:46.522Z,54.37
2019-03-29T19:16:12.854Z,54.04
2019-03-29T19:18:39.088Z,54.95
2019-03-29T19:21:05.591Z,56.77
2019-03-29T19:23:31.814Z,55.89
2019-03-29T19:25:58.142Z,58.56
2019-03-29T19:28:24.481Z,59.82
2019-03-29T19:30:50.928Z,58.18
2019-03-29T19:33:17.188Z,60.11
2019-03-29T19:35:43.320Z,61.23
2019-03-29T19:38:09.535Z,61.23
2019-03-29T19:40:35.740Z,60.84
2019-03-29T19:43:02.183Z,60.76
2019-03-29T19:45:29.592Z,59.86
2019-03-29T19:47:55.809Z,60.34
2019-03-29T19:50:22.178Z,59.87
2019-03-29T19:52:48.428Z,59.97
2019-03-29T19:55:14.607Z,60.07
2019-03-29T19:57:40.940Z,59.47
2019-03-29T20:00:12.364Z,59.68
2019-03-29T20:02:38.726Z,60.20
2019-03-29T20:05:06.976Z,60.20
2019-03-29T20:07:33.300Z,60.59
2019-03-29T20:09:59.636Z,60.59
2019-03-29T20:12:26.981Z,60.64
2019-03-29T20:14:53.435Z,59.64
2019-03-29T20:17:27.359Z,59.64
2019-03-29T20:19:47.757Z,59.75
2019-03-29T20:22:16.218Z,59.63
2019-03-29T20:24:42.205Z,59.63
2019-03-29T20:27:08.480Z,59.90
2019-03-29T20:29:34.744Z,59.90
2019-03-29T20:32:01.085Z,59.60
2019-03-29T20:34:27.237Z,59.74
2019-03-29T20:36:53.469Z,60.07
2019-03-29T20:39:19.787Z,59.74
2019-03-29T20:41:46.132Z,63.05
2019-03-29T20:44:12.692Z,63.05
2019-03-29T20:46:38.928Z,62.30
2019-03-29T20:49:05.074Z,62.31
2019-03-29T20:51:31.278Z,62.67
2019-03-29T20:53:57.492Z,63.34
2019-03-29T20:56:23.731Z,63.71
2019-03-29T20:58:49.930Z,64.29
2019-03-29T21:01:16.183Z,64.10
2019-03-29T21:03:42.484Z,63.06
2019-03-29T21:06:08.890Z,62.76
2019-03-29T21:08:36.020Z,62.80
2019-03-29T21:11:02.470Z,62.48
2019-03-29T21:13:28.765Z,62.31
2019-03-29T21:15:55.089Z,62.55
2019-03-29T21:18:21.405Z,62.17
2019-03-29T21:20:47.610Z,63.00
2019-03-29T21:23:13.739Z,62.39
2019-03-29T21:25:39.818Z,62.01
2019-03-29T21:28:06.030Z,62.47
2019-03-29T21:30:32.470Z,62.04
2019-03-29T21:32:58.794Z,61.78
2019-03-29T21:35:25.018Z,61.63
2019-03-29T21:37:51.306Z,62.26
2019-03-29T21:40:17.595Z,62.15
2019-03-29T21:42:43.739Z,62.66
2019-03-29T21:45:10.357Z,63.34
2019-03-29T21:47:36.718Z,63.25
2019-03-29T21:50:05.960Z,62.65
2019-03-29T21:52:32.158Z,63.22
2019-03-29T21:54:58.365Z,63.33
2019-03-29T21:57:24.617Z,63.74
2019-03-29T21:59:51.027Z,63.87
2019-03-29T22:02:17.259Z,64.55
2019-03-29T22:04:43.561Z,64.57
2019-03-29T22:07:09.646Z,64.75
2019-03-29T22:09:37.173Z,64.18
2019-03-29T22:12:03.775Z,64.02
2019-03-29T22:14:29.881Z,63.71
2019-03-29T22:16:56.007Z,63.43
2019-03-29T22:19:22.326Z,63.13
2019-03-29T22:21:48.663Z,62.91
2019-03-29T22:24:14.871Z,62.99
2019-03-29T22:26:41.054Z,63.02
2019-03-29T22:29:07.496Z,62.89
2019-03-29T22:31:33.699Z,62.82
2019-03-29T22:34:00.027Z,63.20
2019-03-29T22:36:26.118Z,62.88
2019-03-29T22:38:52.246Z,64.03
2019-03-29T22:41:18.452Z,63.81
2019-03-29T22:43:44.575Z,63.57
2019-03-29T22:46:10.777Z,63.86
2019-03-29T22:48:51.243Z,64.03
2019-03-29T22:51:05.194Z,63.71
2019-03-29T22:53:31.318Z,63.55
2019-03-29T22:55:57.448Z,64.12
2019-03-29T22:58:23.576Z,64.24
2019-03-29T23:00:53.625Z,64.44
2019-03-29T23:03:20.175Z,65.87
2019-03-29T23:05:46.309Z,65.86
2019-03-29T23:08:12.739Z,66.45
2019-03-29T23:10:38.954Z,66.18
2019-03-29T23:13:05.254Z,67.86
2019-03-29T23:15:31.555Z,67.96
2019-03-29T23:17:57.865Z,66.83
2019-03-29T23:20:24.274Z,67.99
2019-03-29T23:22:50.388Z,68.26
2019-03-29T23:25:16.589Z,68.77
2019-03-29T23:27:42.911Z,68.80
2019-03-29T23:30:09.633Z,69.42
2019-03-29T23:32:35.951Z,69.62
2019-03-29T23:35:06.619Z,69.24
2019-03-29T23:37:32.815Z,69.26
2019-03-29T23:39:59.144Z,68.67
2019-03-29T23:42:25.375Z,68.06
2019-03-29T23:44:51.563Z,68.54
2019-03-29T23:47:17.763Z,68.76
2019-03-29T23:49:44.172Z,69.50
2019-03-29T23:52:10.276Z,69.62
2019-03-29T23:54:36.494Z,70.34
2019-03-29T23:57:02.911Z,69.73
2019-03-29T23:59:28.998Z,69.81
